Time;durP1;ratioP1;P1;durP2;ratioP2;P2;SDS_P1;SDS_P2;PMS_P1;PMS_P2;Temp;Humidity;BMP_temperature;BMP_pressure;BME280_temperature;BME280_humidity;BME280_pressure;Samples;Min_cycle;Max_cycle;Signal;HPM_P1;HPM_P2
2022/01/05 00:02:03;;;;;;;;;;;4.80;92.60;;;;;;5026540;28;20003;-75
2022/01/05 00:04:29;;;;;;;;;;;4.80;92.80;;;;;;5023489;28;20450;-75
2022/01/05 00:06:55;;;;;;;;;;;4.90;93.00;;;;;;5020752;28;20388;-75
2022/01/05 00:09:20;;;;;;;;;;;4.90;93.00;;;;;;5020630;28;19963;-75
2022/01/05 00:11:46;;;;;;;;;;;4.90;93.00;;;;;;5020625;28;19932;-75
2022/01/05 00:14:12;;;;;;;;;;;4.90;93.00;;;;;;5019745;28;19910;-75
2022/01/05 00:16:37;;;;;;;;;;;5.00;93.00;;;;;;5018988;28;19916;-75
2022/01/05 00:19:03;;;;;;;;;;;5.00;93.00;;;;;;5019037;28;19955;-75
2022/01/05 00:21:29;;;;;;;;;;;5.00;92.90;;;;;;5020390;28;19988;-75
2022/01/05 00:23:55;;;;;;;;;;;5.00;93.00;;;;;;5020033;28;19952;-75
2022/01/05 00:26:20;;;;;;;;;;;5.00;92.90;;;;;;5020088;28;20304;-75
2022/01/05 00:28:46;;;;;;;;;;;5.00;92.70;;;;;;5020104;28;19920;-75
2022/01/05 00:31:12;;;;;;;;;;;5.00;92.70;;;;;;5019902;28;19910;-75
2022/01/05 00:33:38;;;;;;;;;;;4.90;92.60;;;;;;5030525;28;19913;-75
2022/01/05 00:36:04;;;;;;;;;;;4.90;92.60;;;;;;5020218;28;19913;-75
2022/01/05 00:38:29;;;;;;;;;;;4.80;92.60;;;;;;5019956;28;19952;-75
2022/01/05 00:40:55;;;;;;;;;;;4.70;92.60;;;;;;5019134;28;19964;-74
2022/01/05 00:43:21;;;;;;;;;;;4.70;92.60;;;;;;5019867;28;19910;-75
2022/01/05 00:45:46;;;;;;;;;;;4.70;92.60;;;;;;5018327;28;20387;-75
2022/01/05 00:48:12;;;;;;;;;;;4.60;92.60;;;;;;5032671;28;19909;-75
2022/01/05 00:50:37;;;;;;;;;;;4.50;92.60;;;;;;5019797;28;19913;-74
2022/01/05 00:53:03;;;;;;;;;;;4.50;92.70;;;;;;5019936;28;19909;-74
2022/01/05 00:55:29;;;;;;;;;;;4.40;92.70;;;;;;5010287;28;20262;-75
2022/01/05 00:57:55;;;;;;;;;;;4.40;92.70;;;;;;5016160;28;19917;-75
2022/01/05 01:00:21;;;;;;;;;;;4.40;92.80;;;;;;5019664;28;20403;-75
2022/01/05 01:02:46;;;;;;;;;;;4.40;92.80;;;;;;5026517;28;19924;-75
2022/01/05 01:05:14;;;;;;;;;;;4.30;92.90;;;;;;5019654;28;20297;-75
2022/01/05 01:07:40;;;;;;;;;;;4.30;93.00;;;;;;5019369;28;19937;-75
2022/01/05 01:10:06;;;;;;;;;;;4.30;93.00;;;;;;5019453;28;19913;-75
2022/01/05 01:12:34;;;;;;;;;;;4.30;93.00;;;;;;5019246;28;19914;-75
2022/01/05 01:15:02;;;;;;;;;;;4.30;92.80;;;;;;5019505;28;19959;-75
2022/01/05 01:17:28;;;;;;;;;;;4.30;92.70;;;;;;5019157;28;19916;-75
2022/01/05 01:19:53;;;;;;;;;;;4.30;92.70;;;;;;5019392;28;19909;-75
2022/01/05 01:22:19;;;;;;;;;;;4.30;92.70;;;;;;5018977;28;19909;-75
2022/01/05 01:24:45;;;;;;;;;;;4.30;92.60;;;;;;5017701;28;20012;-75
2022/01/05 01:27:10;;;;;;;;;;;4.30;92.50;;;;;;5018174;28;19913;-75
2022/01/05 01:29:36;;;;;;;;;;;4.30;92.40;;;;;;5019236;28;20438;-75
2022/01/05 01:32:04;;;;;;;;;;;4.30;92.30;;;;;;5021473;28;19992;-75
2022/01/05 01:34:29;;;;;;;;;;;4.20;92.30;;;;;;5027478;28;19951;-74
2022/01/05 01:36:55;;;;;;;;;;;4.20;92.20;;;;;;5019047;28;19910;-74
2022/01/05 01:39:21;;;;;;;;;;;4.20;92.20;;;;;;5019114;28;19909;-75
2022/01/05 01:41:46;;;;;;;;;;;4.20;92.20;;;;;;5018723;28;19910;-75
2022/01/05 01:44:12;;;;;;;;;;;4.10;92.20;;;;;;5017588;28;20064;-75
2022/01/05 01:46:37;;;;;;;;;;;4.10;92.20;;;;;;5021963;28;19957;-75
2022/01/05 01:49:03;;;;;;;;;;;4.10;92.20;;;;;;5026649;28;19952;-74
2022/01/05 01:51:29;;;;;;;;;;;4.00;92.20;;;;;;5017558;28;19964;-75
2022/01/05 01:53:54;;;;;;;;;;;4.00;92.20;;;;;;5018641;28;19909;-74
2022/01/05 01:56:23;;;;;;;;;;;4.00;92.30;;;;;;5005294;28;19959;-75
2022/01/05 01:58:48;;;;;;;;;;;3.90;92.30;;;;;;5018741;28;19913;-74
2022/01/05 02:01:15;;;;;;;;;;;3.90;92.30;;;;;;5018079;28;19917;-74
2022/01/05 02:03:40;;;;;;;;;;;3.90;92.40;;;;;;5027205;28;19910;-74
2022/01/05 02:06:06;;;;;;;;;;;3.80;92.40;;;;;;5017061;28;19917;-75
2022/01/05 02:08:33;;;;;;;;;;;3.80;92.50;;;;;;5018790;28;19916;-75
2022/01/05 02:10:59;;;;;;;;;;;3.80;92.50;;;;;;5016915;28;19909;-75
2022/01/05 02:13:24;;;;;;;;;;;3.80;92.60;;;;;;5018413;28;20000;-75
2022/01/05 02:15:50;;;;;;;;;;;3.70;92.70;;;;;;5017945;28;19909;-75
2022/01/05 02:18:58;;;;;;;;;;;3.70;92.70;;;;;;5017056;28;20387;-75
2022/01/05 02:21:11;;;;;;;;;;;3.70;92.70;;;;;;5018220;28;19913;-75
2022/01/05 02:23:37;;;;;;;;;;;3.70;92.80;;;;;;5018159;28;19910;-75
2022/01/05 02:26:04;;;;;;;;;;;3.70;93.00;;;;;;5017853;28;19929;-75
2022/01/05 02:28:29;;;;;;;;;;;3.70;93.20;;;;;;5018031;28;19948;-75
2022/01/05 02:30:56;;;;;;;;;;;3.60;93.20;;;;;;5017026;28;19909;-75
2022/01/05 02:33:22;;;;;;;;;;;3.70;93.30;;;;;;5029214;28;20036;-75
2022/01/05 02:35:48;;;;;;;;;;;3.70;93.30;;;;;;5017070;28;19948;-75
2022/01/05 02:38:17;;;;;;;;;;;3.70;93.40;;;;;;5016454;28;19932;-75
2022/01/05 02:40:42;;;;;;;;;;;3.70;93.60;;;;;;5018078;28;19910;-75
2022/01/05 02:43:08;;;;;;;;;;;3.80;93.40;;;;;;5018007;28;19941;-75
2022/01/05 02:45:33;;;;;;;;;;;3.80;93.30;;;;;;5018020;28;19909;-75
2022/01/05 02:47:59;;;;;;;;;;;3.80;93.20;;;;;;5029557;28;19916;-75
2022/01/05 02:50:25;;;;;;;;;;;3.70;93.20;;;;;;5018089;28;19936;-75
2022/01/05 02:52:50;;;;;;;;;;;3.70;93.20;;;;;;5017857;28;19957;-75
2022/01/05 02:55:16;;;;;;;;;;;3.80;93.20;;;;;;5010293;28;19995;-75
2022/01/05 02:57:42;;;;;;;;;;;3.70;93.30;;;;;;5012451;28;19913;-76
2022/01/05 03:00:09;;;;;;;;;;;3.80;93.30;;;;;;5017889;28;20311;-75
2022/01/05 03:02:34;;;;;;;;;;;3.80;93.20;;;;;;5026603;28;19916;-75
2022/01/05 03:05:00;;;;;;;;;;;3.70;93.20;;;;;;5017944;28;19999;-75
2022/01/05 03:07:26;;;;;;;;;;;3.70;93.10;;;;;;5017753;28;20451;-75
2022/01/05 03:09:52;;;;;;;;;;;3.70;93.10;;;;;;5017820;28;19920;-75
2022/01/05 03:12:17;;;;;;;;;;;3.70;93.10;;;;;;5017596;28;19914;-75
2022/01/05 03:14:43;;;;;;;;;;;3.60;93.00;;;;;;5018158;28;19910;-75
2022/01/05 03:17:08;;;;;;;;;;;3.60;93.10;;;;;;5017400;28;20029;-75
2022/01/05 03:19:34;;;;;;;;;;;3.60;93.10;;;;;;5017969;28;19910;-75
2022/01/05 03:22:00;;;;;;;;;;;3.50;93.00;;;;;;5017585;28;19910;-75
2022/01/05 03:24:25;;;;;;;;;;;3.50;93.10;;;;;;5017460;28;19921;-75
2022/01/05 03:26:51;;;;;;;;;;;3.50;93.20;;;;;;5017620;28;20028;-75
2022/01/05 03:29:17;;;;;;;;;;;3.50;93.30;;;;;;5017670;28;19936;-75
2022/01/05 03:31:42;;;;;;;;;;;3.50;93.30;;;;;;5017624;28;20408;-75
2022/01/05 03:34:09;;;;;;;;;;;3.50;93.30;;;;;;5029480;28;19914;-75
2022/01/05 03:36:34;;;;;;;;;;;3.60;93.30;;;;;;5017388;28;19952;-76
2022/01/05 03:39:00;;;;;;;;;;;3.50;93.20;;;;;;5017647;28;20328;-75
2022/01/05 03:41:26;;;;;;;;;;;3.60;93.20;;;;;;5017555;28;20277;-75
2022/01/05 03:43:51;;;;;;;;;;;3.60;93.20;;;;;;5016079;28;19933;-76
2022/01/05 03:46:17;;;;;;;;;;;3.70;93.20;;;;;;5019293;28;19909;-75
2022/01/05 03:48:43;;;;;;;;;;;3.70;93.20;;;;;;5028431;28;20387;-75
2022/01/05 03:51:08;;;;;;;;;;;3.70;93.10;;;;;;5020397;28;19913;-75
2022/01/05 03:53:34;;;;;;;;;;;3.70;93.20;;;;;;5020813;28;19960;-75
2022/01/05 03:56:01;;;;;;;;;;;3.70;93.10;;;;;;5007633;28;19981;-75
2022/01/05 03:58:27;;;;;;;;;;;3.70;93.00;;;;;;5019823;28;20272;-75
2022/01/05 04:00:53;;;;;;;;;;;3.70;93.00;;;;;;5020445;28;19910;-75
2022/01/05 04:03:19;;;;;;;;;;;3.60;92.90;;;;;;5029230;28;19913;-75
2022/01/05 04:05:44;;;;;;;;;;;3.60;92.90;;;;;;5020703;28;19909;-75
2022/01/05 04:08:10;;;;;;;;;;;3.60;92.90;;;;;;5020876;28;19910;-75
2022/01/05 04:10:36;;;;;;;;;;;3.50;92.90;;;;;;5020402;28;19919;-75
2022/01/05 04:13:02;;;;;;;;;;;3.40;92.90;;;;;;5020743;28;19909;-76
2022/01/05 04:15:28;;;;;;;;;;;3.40;92.90;;;;;;5020195;28;19921;-75
2022/01/05 04:17:53;;;;;;;;;;;3.30;92.90;;;;;;5020410;28;20308;-75
2022/01/05 04:20:19;;;;;;;;;;;3.30;92.80;;;;;;5020338;28;19944;-75
2022/01/05 04:22:45;;;;;;;;;;;3.20;92.80;;;;;;5020784;28;19913;-75
2022/01/05 04:25:11;;;;;;;;;;;3.20;92.90;;;;;;5019945;28;19940;-75
2022/01/05 04:27:39;;;;;;;;;;;3.20;93.00;;;;;;5019847;28;20120;-75
2022/01/05 04:30:06;;;;;;;;;;;3.20;93.00;;;;;;5019091;28;19913;-75
2022/01/05 04:32:31;;;;;;;;;;;3.10;93.10;;;;;;5025513;28;20300;-75
2022/01/05 04:34:57;;;;;;;;;;;3.10;93.20;;;;;;5022826;28;19916;-75
2022/01/05 04:37:23;;;;;;;;;;;3.10;93.30;;;;;;5020427;28;19909;-75
2022/01/05 04:39:49;;;;;;;;;;;3.10;93.30;;;;;;5018620;28;19913;-75
2022/01/05 04:42:15;;;;;;;;;;;3.00;93.30;;;;;;5020016;28;20055;-75
2022/01/05 04:44:40;;;;;;;;;;;3.00;93.30;;;;;;5019890;28;19960;-75
2022/01/05 04:47:07;;;;;;;;;;;3.00;93.30;;;;;;5028163;28;19964;-75
2022/01/05 04:49:33;;;;;;;;;;;3.00;93.30;;;;;;5021908;28;19917;-75
2022/01/05 04:51:58;;;;;;;;;;;3.00;93.30;;;;;;5019906;28;19910;-75
2022/01/05 04:54:24;;;;;;;;;;;3.00;93.30;;;;;;5018790;28;19910;-75
2022/01/05 04:56:50;;;;;;;;;;;3.00;93.30;;;;;;5007401;28;19909;-75
2022/01/05 04:59:15;;;;;;;;;;;2.90;93.30;;;;;;5019819;28;19909;-75
2022/01/05 05:01:41;;;;;;;;;;;2.90;93.20;;;;;;5022383;28;19910;-75
2022/01/05 05:04:07;;;;;;;;;;;2.90;93.20;;;;;;5025423;28;19917;-75
2022/01/05 05:06:32;;;;;;;;;;;3.00;93.20;;;;;;5019794;28;19914;-75
2022/01/05 05:08:58;;;;;;;;;;;3.00;93.10;;;;;;5019289;28;19924;-75
2022/01/05 05:11:23;;;;;;;;;;;2.90;93.10;;;;;;5019668;28;19997;-75
2022/01/05 05:13:49;;;;;;;;;;;3.00;93.20;;;;;;5019328;28;20468;-75
2022/01/05 05:16:15;;;;;;;;;;;3.00;93.20;;;;;;5019046;28;19910;-75
2022/01/05 05:18:40;;;;;;;;;;;3.00;93.20;;;;;;5019233;28;20012;-75
2022/01/05 05:21:07;;;;;;;;;;;2.90;93.20;;;;;;5019765;28;19913;-75
2022/01/05 05:23:32;;;;;;;;;;;2.90;93.20;;;;;;5019209;28;19917;-75
2022/01/05 05:25:58;;;;;;;;;;;2.90;93.40;;;;;;5018765;28;19925;-75
2022/01/05 05:28:24;;;;;;;;;;;3.00;93.50;;;;;;5019064;28;19913;-75
2022/01/05 05:30:49;;;;;;;;;;;3.00;93.70;;;;;;5018785;28;20296;-75
2022/01/05 05:33:15;;;;;;;;;;;3.10;93.70;;;;;;5031322;28;20000;-76
2022/01/05 05:35:41;;;;;;;;;;;3.10;93.70;;;;;;5019234;28;19909;-75
2022/01/05 05:38:08;;;;;;;;;;;3.20;93.70;;;;;;5018864;28;20361;-75
2022/01/05 05:40:33;;;;;;;;;;;3.30;93.70;;;;;;5018996;28;19949;-75
2022/01/05 05:42:59;;;;;;;;;;;3.30;93.70;;;;;;5018747;28;19916;-76
2022/01/05 05:45:25;;;;;;;;;;;3.30;93.70;;;;;;5018747;28;20292;-75
2022/01/05 05:47:51;;;;;;;;;;;3.30;93.70;;;;;;5031780;28;19909;-75
2022/01/05 05:50:16;;;;;;;;;;;3.40;93.70;;;;;;5018830;28;20411;-75
2022/01/05 05:52:42;;;;;;;;;;;3.30;93.60;;;;;;5018762;28;19910;-75
2022/01/05 05:55:08;;;;;;;;;;;3.30;93.60;;;;;;5011986;28;19913;-75
2022/01/05 05:57:33;;;;;;;;;;;3.20;93.50;;;;;;5027220;28;20006;-75
2022/01/05 05:59:59;;;;;;;;;;;3.20;93.50;;;;;;5018794;28;19917;-74
2022/01/05 06:02:25;;;;;;;;;;;3.10;93.50;;;;;;5026779;28;19963;-73
2022/01/05 06:04:50;;;;;;;;;;;3.10;93.60;;;;;;5018723;28;19909;-75
2022/01/05 06:07:16;;;;;;;;;;;3.10;93.70;;;;;;5018566;28;20387;-77
2022/01/05 06:09:42;;;;;;;;;;;3.10;93.80;;;;;;5018251;28;19996;-77
2022/01/05 06:12:08;;;;;;;;;;;3.10;93.90;;;;;;5016807;28;19971;-75
2022/01/05 06:14:33;;;;;;;;;;;3.00;93.90;;;;;;5018488;28;19909;-76
2022/01/05 06:16:59;;;;;;;;;;;3.00;93.90;;;;;;5018104;28;20000;-74
2022/01/05 06:19:25;;;;;;;;;;;3.00;93.90;;;;;;5018317;28;20339;-77
2022/01/05 06:21:50;;;;;;;;;;;3.00;93.90;;;;;;5016791;28;19909;-77
2022/01/05 06:24:16;;;;;;;;;;;3.00;93.90;;;;;;5018196;28;19918;-74
2022/01/05 06:26:42;;;;;;;;;;;3.00;93.90;;;;;;5016732;28;19914;-73
2022/01/05 06:29:08;;;;;;;;;;;3.00;93.80;;;;;;5018133;28;19964;-75
2022/01/05 06:31:34;;;;;;;;;;;2.90;93.80;;;;;;5017942;28;19909;-71
2022/01/05 06:34:00;;;;;;;;;;;2.90;93.80;;;;;;5029619;28;19964;-75
2022/01/05 06:36:25;;;;;;;;;;;2.90;93.90;;;;;;5014066;28;19916;-75
2022/01/05 06:38:51;;;;;;;;;;;2.80;93.90;;;;;;5015727;28;19917;-75
2022/01/05 06:41:17;;;;;;;;;;;2.80;94.00;;;;;;5016405;28;20281;-75
2022/01/05 06:43:42;;;;;;;;;;;2.80;94.00;;;;;;5018072;28;20329;-75
2022/01/05 06:46:08;;;;;;;;;;;2.70;93.90;;;;;;5018185;28;19933;-75
2022/01/05 06:48:34;;;;;;;;;;;2.60;93.70;;;;;;5017189;28;20312;-74
2022/01/05 06:50:59;;;;;;;;;;;2.60;93.80;;;;;;5018574;28;20444;-76
2022/01/05 06:53:25;;;;;;;;;;;2.60;93.80;;;;;;5017829;28;19977;-75
2022/01/05 06:55:50;;;;;;;;;;;2.50;93.80;;;;;;5004991;28;19933;-75
2022/01/05 06:58:16;;;;;;;;;;;2.50;93.80;;;;;;5032012;28;19993;-75
2022/01/05 07:00:42;;;;;;;;;;;2.60;93.80;;;;;;5016781;28;20340;-75
2022/01/05 07:03:09;;;;;;;;;;;2.50;93.80;;;;;;5026158;28;20004;-75
2022/01/05 07:05:35;;;;;;;;;;;2.50;93.80;;;;;;5016380;28;19910;-74
2022/01/05 07:08:00;;;;;;;;;;;2.40;93.70;;;;;;5017656;28;20398;-74
2022/01/05 07:10:26;;;;;;;;;;;2.40;93.50;;;;;;5017630;28;19936;-75
2022/01/05 07:12:52;;;;;;;;;;;2.30;93.40;;;;;;5013029;28;19909;-75
2022/01/05 07:15:18;;;;;;;;;;;2.30;93.40;;;;;;5016610;28;20296;-75
2022/01/05 07:17:43;;;;;;;;;;;2.30;93.50;;;;;;5016294;28;19911;-75
2022/01/05 07:20:09;;;;;;;;;;;2.30;93.60;;;;;;5016188;28;19909;-76
2022/01/05 07:22:36;;;;;;;;;;;2.40;93.80;;;;;;5017389;28;19958;-76
2022/01/05 07:25:02;;;;;;;;;;;2.40;93.80;;;;;;5017420;28;19926;-75
2022/01/05 07:27:28;;;;;;;;;;;2.50;93.80;;;;;;5021422;28;19957;-75
2022/01/05 07:29:54;;;;;;;;;;;2.50;93.70;;;;;;5021175;28;20476;-75
2022/01/05 07:32:19;;;;;;;;;;;2.50;93.70;;;;;;5026023;28;19909;-75
2022/01/05 07:34:45;;;;;;;;;;;2.50;93.70;;;;;;5028017;28;19910;-75
2022/01/05 07:37:11;;;;;;;;;;;2.50;93.80;;;;;;5021445;28;20328;-75
2022/01/05 07:39:37;;;;;;;;;;;2.40;93.70;;;;;;5021160;28;19909;-75
2022/01/05 07:42:03;;;;;;;;;;;2.40;93.60;;;;;;5019683;28;19910;-75
2022/01/05 07:44:28;;;;;;;;;;;2.30;93.50;;;;;;5019752;28;20275;-75
2022/01/05 07:46:54;;;;;;;;;;;2.30;93.50;;;;;;5027702;28;20360;-75
2022/01/05 07:49:20;;;;;;;;;;;2.30;93.70;;;;;;5027044;28;19913;-74
2022/01/05 07:51:45;;;;;;;;;;;2.30;93.90;;;;;;5020902;28;19959;-73
2022/01/05 07:54:11;;;;;;;;;;;2.30;94.10;;;;;;5020599;28;19952;-75
2022/01/05 07:56:37;;;;;;;;;;;2.20;94.20;;;;;;5006974;28;20034;-74
2022/01/05 07:59:03;;;;;;;;;;;2.30;94.50;;;;;;5017465;28;20056;-73
2022/01/05 08:01:29;;;;;;;;;;;2.30;94.60;;;;;;5015527;28;19917;-74
2022/01/05 08:03:55;;;;;;;;;;;2.40;94.80;;;;;;5018609;28;19922;-74
2022/01/05 08:06:20;;;;;;;;;;;2.50;94.70;;;;;;5013911;28;19918;-74
2022/01/05 08:08:47;;;;;;;;;;;2.50;94.70;;;;;;5015963;28;19909;-74
2022/01/05 08:11:13;;;;;;;;;;;2.50;94.60;;;;;;5014483;28;20324;-73
2022/01/05 08:13:38;;;;;;;;;;;2.50;94.60;;;;;;5020431;28;19913;-73
2022/01/05 08:16:04;;;;;;;;;;;2.60;94.60;;;;;;5019982;28;19917;-74
2022/01/05 08:18:30;;;;;;;;;;;2.60;94.60;;;;;;5020289;28;19910;-72
2022/01/05 08:20:55;;;;;;;;;;;2.70;94.50;;;;;;5020346;28;19916;-72
2022/01/05 08:23:22;;;;;;;;;;;2.70;94.40;;;;;;5020465;28;19910;-72
2022/01/05 08:25:47;;;;;;;;;;;2.70;94.30;;;;;;5019768;28;20274;-72
2022/01/05 08:28:14;;;;;;;;;;;2.70;94.20;;;;;;5020248;28;19909;-72
2022/01/05 08:30:40;;;;;;;;;;;2.80;94.20;;;;;;5019715;28;20304;-73
2022/01/05 08:33:06;;;;;;;;;;;2.70;94.10;;;;;;5018914;28;19909;-73
2022/01/05 08:35:33;;;;;;;;;;;2.70;94.00;;;;;;5019323;28;20365;-73
2022/01/05 08:37:59;;;;;;;;;;;2.70;94.00;;;;;;5020079;28;19921;-73
2022/01/05 08:40:25;;;;;;;;;;;2.70;94.00;;;;;;5019868;28;19910;-72
2022/01/05 08:42:51;;;;;;;;;;;2.70;94.00;;;;;;5019900;28;19910;-73
2022/01/05 08:45:17;;;;;;;;;;;2.80;94.00;;;;;;5019633;28;19909;-73
2022/01/05 08:47:47;;;;;;;;;;;2.80;94.00;;;;;;5031401;28;19967;-73
2022/01/05 08:50:16;;;;;;;;;;;2.80;94.10;;;;;;5018514;28;19963;-73
2022/01/05 08:52:42;;;;;;;;;;;2.80;94.20;;;;;;5019645;28;19909;-73
2022/01/05 08:55:08;;;;;;;;;;;2.90;94.30;;;;;;5011737;28;20424;-73
2022/01/05 08:57:33;;;;;;;;;;;2.90;94.40;;;;;;5011666;28;19910;-73
2022/01/05 08:59:59;;;;;;;;;;;2.90;94.40;;;;;;5019691;28;19916;-73
2022/01/05 09:02:25;;;;;;;;;;;3.00;94.40;;;;;;5018357;28;19909;-73
2022/01/05 09:04:52;;;;;;;;;;;3.00;94.30;;;;;;5006570;28;19910;-73
2022/01/05 09:07:18;;;;;;;;;;;3.00;94.30;;;;;;5019683;28;19909;-73
2022/01/05 09:09:44;;;;;;;;;;;3.10;94.10;;;;;;5019361;28;19913;-73
2022/01/05 09:12:10;;;;;;;;;;;3.20;94.10;;;;;;5019304;28;20284;-73
2022/01/05 09:14:36;;;;;;;;;;;3.20;94.00;;;;;;5019513;28;19909;-73
2022/01/05 09:17:02;;;;;;;;;;;3.30;93.90;;;;;;5018137;28;20000;-73
2022/01/05 09:19:28;;;;;;;;;;;3.40;93.90;;;;;;5018187;28;19910;-73
2022/01/05 09:21:54;;;;;;;;;;;3.40;93.70;;;;;;5019258;28;19968;-73
2022/01/05 09:24:20;;;;;;;;;;;3.50;93.60;;;;;;5018912;28;19928;-73
2022/01/05 09:26:45;;;;;;;;;;;3.50;93.60;;;;;;5019222;28;19909;-73
2022/01/05 09:29:11;;;;;;;;;;;3.60;93.50;;;;;;5019533;28;20384;-73
2022/01/05 09:31:37;;;;;;;;;;;3.60;93.40;;;;;;5018656;28;19909;-73
2022/01/05 09:34:03;;;;;;;;;;;3.60;93.40;;;;;;5031407;28;19910;-73
2022/01/05 09:36:41;;;;;;;;;;;3.60;93.40;;;;;;5018996;28;19920;-73
2022/01/05 09:42:00;;;;;;;;;;;3.90;93.40;;;;;;5019139;28;19917;-73
2022/01/05 09:44:32;;;;;;;;;;;4.10;93.40;;;;;;5019208;28;20320;-74
2022/01/05 09:47:17;;;;;;;;;;;4.30;93.50;;;;;;5006148;28;19913;-74
2022/01/05 09:49:54;;;;;;;;;;;4.60;93.50;;;;;;5018642;28;19913;-74
2022/01/05 09:52:21;;;;;;;;;;;5.00;93.20;;;;;;5018875;28;20503;-74
2022/01/05 09:54:47;;;;;;;;;;;5.20;92.90;;;;;;5013813;28;19910;-74
2022/01/05 09:57:16;;;;;;;;;;;5.60;92.50;;;;;;5009776;28;19910;-71
2022/01/05 09:59:43;;;;;;;;;;;5.90;91.90;;;;;;5018523;28;19999;-71
2022/01/05 10:02:09;;;;;;;;;;;6.20;91.50;;;;;;5025071;28;19913;-72
2022/01/05 10:04:35;;;;;;;;;;;6.40;91.50;;;;;;5020213;28;19909;-72
2022/01/05 10:07:01;;;;;;;;;;;6.60;91.60;;;;;;5017297;28;19975;-71
2022/01/05 10:09:26;;;;;;;;;;;6.90;91.30;;;;;;5018133;28;19914;-72
2022/01/05 10:11:52;;;;;;;;;;;7.00;91.40;;;;;;5018776;28;19909;-72
2022/01/05 10:14:18;;;;;;;;;;;7.30;91.70;;;;;;5018211;28;19910;-72
2022/01/05 10:17:00;;;;;;;;;;;7.60;90.90;;;;;;5018091;28;19916;-72
2022/01/05 10:19:25;;;;;;;;;;;7.90;90.30;;;;;;5005668;28;20004;-72
2022/01/05 10:21:51;;;;;;;;;;;8.30;89.70;;;;;;5018148;28;19975;-72
2022/01/05 10:24:17;;;;;;;;;;;8.50;89.90;;;;;;5018376;28;20000;-72
2022/01/05 10:26:43;;;;;;;;;;;9.30;85.80;;;;;;5018054;28;19952;-72
2022/01/05 10:29:08;;;;;;;;;;;9.70;84.90;;;;;;5018255;28;19913;-72
2022/01/05 10:31:35;;;;;;;;;;;10.20;84.00;;;;;;5017841;28;19913;-72
2022/01/05 10:34:19;;;;;;;;;;;10.60;83.50;;;;;;5030081;28;19914;-72
2022/01/05 10:36:49;;;;;;;;;;;11.40;80.80;;;;;;5016753;28;19910;-72
2022/01/05 10:39:15;;;;;;;;;;;12.10;77.10;;;;;;5018064;28;19909;-72
2022/01/05 10:41:42;;;;;;;;;;;12.60;75.00;;;;;;5017971;28;19917;-72
2022/01/05 10:44:14;;;;;;;;;;;12.80;75.20;;;;;;5018221;28;19960;-72
2022/01/05 10:46:47;;;;;;;;;;;12.60;78.50;;;;;;5022563;28;19916;-72
2022/01/05 10:49:30;;;;;;;;;;;13.10;75.80;;;;;;5025055;28;19914;-72
2022/01/05 10:51:57;;;;;;;;;;;13.20;74.80;;;;;;5006884;28;20357;-72
2022/01/05 10:54:25;;;;;;;;;;;13.10;73.60;;;;;;5015808;28;19913;-72
2022/01/05 10:56:51;;;;;;;;;;;13.10;73.60;;;;;;5005968;28;20364;-72
2022/01/05 10:59:39;;;;;;;;;;;13.00;70.90;;;;;;5020069;28;19910;-72
2022/01/05 11:02:22;;;;;;;;;;;12.70;71.50;;;;;;5028003;28;19916;-72
2022/01/05 11:04:49;;;;;;;;;;;12.50;70.00;;;;;;5021895;28;19909;-72
2022/01/05 11:07:26;;;;;;;;;;;12.50;71.10;;;;;;5022121;28;19916;-72
2022/01/05 11:09:53;;;;;;;;;;;12.50;69.90;;;;;;5010058;28;19914;-72
2022/01/05 11:12:19;;;;;;;;;;;12.40;69.10;;;;;;5020278;28;19960;-72
2022/01/05 11:14:44;;;;;;;;;;;12.30;71.00;;;;;;5021808;28;19909;-72
2022/01/05 11:17:15;;;;;;;;;;;12.00;70.20;;;;;;5021354;28;19909;-74
2022/01/05 11:19:40;;;;;;;;;;;11.70;71.50;;;;;;5021749;28;19913;-75
2022/01/05 11:22:08;;;;;;;;;;;11.40;71.00;;;;;;5021338;28;20395;-74
2022/01/05 11:24:36;;;;;;;;;;;11.10;70.30;;;;;;5021201;28;19928;-74
2022/01/05 11:27:01;;;;;;;;;;;10.70;71.00;;;;;;5021398;28;19910;-74
2022/01/05 11:29:27;;;;;;;;;;;10.40;71.20;;;;;;5021328;28;19913;-72
2022/01/05 11:31:54;;;;;;;;;;;10.20;71.40;;;;;;5022668;28;19916;-72
2022/01/05 11:34:19;;;;;;;;;;;10.10;73.10;;;;;;5031446;28;19909;-72
2022/01/05 11:36:45;;;;;;;;;;;10.50;75.00;;;;;;5021154;28;19967;-72
2022/01/05 11:39:11;;;;;;;;;;;11.10;75.10;;;;;;5019913;28;19956;-72
2022/01/05 11:41:39;;;;;;;;;;;11.90;73.50;;;;;;5021176;28;20364;-72
2022/01/05 11:44:06;;;;;;;;;;;12.50;74.30;;;;;;5021339;28;19910;-72
2022/01/05 11:46:32;;;;;;;;;;;12.90;71.60;;;;;;5024532;28;19909;-72
2022/01/05 11:49:03;;;;;;;;;;;13.10;70.00;;;;;;5030015;28;20000;-74
2022/01/05 11:51:30;;;;;;;;;;;13.00;69.20;;;;;;5020916;28;19910;-72
2022/01/05 11:54:12;;;;;;;;;;;13.10;70.30;;;;;;5020736;28;19932;-73
2022/01/05 11:56:42;;;;;;;;;;;13.30;70.90;;;;;;5006861;28;20391;-72
2022/01/05 11:59:19;;;;;;;;;;;13.80;69.60;;;;;;5021126;28;19917;-72
2022/01/05 12:01:56;;;;;;;;;;;14.10;69.00;;;;;;5012757;28;19915;-72
2022/01/05 12:04:22;;;;;;;;;;;14.00;70.70;;;;;;5023989;28;19909;-72
2022/01/05 12:06:48;;;;;;;;;;;13.80;72.90;;;;;;5020913;28;20349;-72
2022/01/05 12:09:18;;;;;;;;;;;13.90;72.30;;;;;;5020354;28;19913;-72
2022/01/05 12:11:44;;;;;;;;;;;14.10;74.30;;;;;;5019945;28;20288;-72
2022/01/05 12:14:21;;;;;;;;;;;14.30;74.30;;;;;;5020378;28;19909;-72
2022/01/05 12:16:59;;;;;;;;;;;14.30;73.80;;;;;;5020314;28;19917;-72
2022/01/05 12:19:26;;;;;;;;;;;14.20;74.30;;;;;;5008483;28;19916;-72
2022/01/05 12:21:53;;;;;;;;;;;14.00;73.20;;;;;;5020548;28;20375;-72
2022/01/05 12:24:19;;;;;;;;;;;14.00;71.90;;;;;;5018809;28;19933;-72
2022/01/05 12:27:05;;;;;;;;;;;14.30;71.60;;;;;;5015337;28;19909;-72
2022/01/05 12:29:32;;;;;;;;;;;14.60;71.50;;;;;;5020370;28;19913;-72
2022/01/05 12:31:58;;;;;;;;;;;14.90;72.80;;;;;;5022278;28;20369;-72
2022/01/05 12:34:56;;;;;;;;;;;15.20;73.80;;;;;;5028706;28;19936;-72
2022/01/05 12:37:41;;;;;;;;;;;15.40;72.80;;;;;;4976710;28;19916;-72
2022/01/05 12:40:26;;;;;;;;;;;15.30;71.90;;;;;;5019816;28;19909;-72
2022/01/05 12:43:07;;;;;;;;;;;15.10;73.30;;;;;;5020029;28;19916;-72
2022/01/05 12:45:47;;;;;;;;;;;14.80;72.00;;;;;;5018466;28;19910;-72
2022/01/05 12:48:36;;;;;;;;;;;14.50;72.30;;;;;;5032235;28;19910;-72
2022/01/05 12:51:11;;;;;;;;;;;14.30;73.00;;;;;;5019860;28;20388;-71
2022/01/05 12:53:37;;;;;;;;;;;14.00;73.50;;;;;;5018589;28;19909;-71
2022/01/05 12:56:03;;;;;;;;;;;13.70;73.80;;;;;;5006421;28;19910;-71
2022/01/05 12:58:35;;;;;;;;;;;13.40;74.90;;;;;;5019823;28;19920;-72
2022/01/05 13:01:00;;;;;;;;;;;13.10;75.00;;;;;;5019349;28;19956;-71
2022/01/05 13:03:30;;;;;;;;;;;12.90;75.70;;;;;;5028264;28;20431;-71
2022/01/05 13:06:11;;;;;;;;;;;12.70;74.50;;;;;;5019601;28;19933;-71
2022/01/05 13:08:37;;;;;;;;;;;12.50;76.20;;;;;;5020026;28;19967;-72
2022/01/05 13:11:03;;;;;;;;;;;12.40;76.90;;;;;;5019262;28;19913;-72
2022/01/05 13:13:29;;;;;;;;;;;12.30;76.80;;;;;;5019545;28;19910;-71
2022/01/05 13:16:05;;;;;;;;;;;12.10;76.90;;;;;;5019022;28;20021;-72
2022/01/05 13:18:31;;;;;;;;;;;12.00;77.70;;;;;;5019566;28;20008;-71
2022/01/05 13:20:57;;;;;;;;;;;11.90;77.70;;;;;;5019257;28;19960;-72
2022/01/05 13:23:22;;;;;;;;;;;11.80;77.30;;;;;;5018281;28;19909;-74
2022/01/05 13:25:48;;;;;;;;;;;11.60;77.70;;;;;;5018930;28;19925;-74
2022/01/05 13:28:14;;;;;;;;;;;11.50;77.40;;;;;;5019440;28;19916;-74
2022/01/05 13:30:40;;;;;;;;;;;11.30;77.70;;;;;;5019041;28;20003;-74
2022/01/05 13:33:12;;;;;;;;;;;11.20;77.50;;;;;;5030909;28;19909;-74
2022/01/05 13:35:38;;;;;;;;;;;11.00;76.40;;;;;;5019359;28;19916;-74
2022/01/05 13:38:05;;;;;;;;;;;10.80;76.40;;;;;;5018884;28;19909;-74
2022/01/05 13:40:33;;;;;;;;;;;10.70;75.90;;;;;;5018996;28;19980;-74
2022/01/05 13:43:02;;;;;;;;;;;10.60;75.70;;;;;;5018833;28;19917;-71
2022/01/05 13:45:48;;;;;;;;;;;10.40;76.10;;;;;;5018719;28;19909;-73
2022/01/05 13:48:20;;;;;;;;;;;10.30;75.80;;;;;;5031019;28;19916;-71
2022/01/05 13:50:55;;;;;;;;;;;10.10;76.70;;;;;;5018964;28;19913;-71
2022/01/05 13:53:26;;;;;;;;;;;10.00;76.90;;;;;;5006620;28;19909;-71
2022/01/05 13:55:55;;;;;;;;;;;9.90;77.60;;;;;;5014089;28;19910;-71
2022/01/05 13:58:22;;;;;;;;;;;9.70;77.90;;;;;;5018527;28;19909;-71
2022/01/05 14:00:49;;;;;;;;;;;9.70;78.40;;;;;;5018615;28;19914;-71
2022/01/05 14:03:25;;;;;;;;;;;9.60;79.40;;;;;;5027478;28;19910;-71
2022/01/05 14:05:51;;;;;;;;;;;9.50;78.90;;;;;;5018354;28;19917;-72
2022/01/05 14:08:16;;;;;;;;;;;9.50;79.20;;;;;;5018640;28;19910;-71
2022/01/05 14:10:42;;;;;;;;;;;9.40;79.30;;;;;;5018159;28;19913;-71
2022/01/05 14:13:10;;;;;;;;;;;9.40;79.90;;;;;;5018411;28;19910;-71
2022/01/05 14:15:36;;;;;;;;;;;9.40;80.20;;;;;;5018165;28;19910;-71
2022/01/05 14:18:07;;;;;;;;;;;9.40;80.20;;;;;;5018541;28;19917;-71
2022/01/05 14:20:34;;;;;;;;;;;9.30;80.40;;;;;;5018461;28;19909;-71
2022/01/05 14:23:04;;;;;;;;;;;9.30;80.50;;;;;;5018469;28;19909;-71
2022/01/05 14:25:34;;;;;;;;;;;9.20;80.60;;;;;;5016503;28;20368;-71
2022/01/05 14:28:14;;;;;;;;;;;9.20;80.90;;;;;;5016992;28;19916;-71
2022/01/05 14:30:50;;;;;;;;;;;9.20;81.00;;;;;;5004892;28;19980;-71